Time;durP1;ratioP1;P1;durP2;ratioP2;P2;SDS_P1;SDS_P2;PMS_P1;PMS_P2;Temp;Humidity;BMP_temperature;BMP_pressure;BME280_temperature;BME280_humidity;BME280_pressure;Samples;Min_cycle;Max_cycle;Signal;HPM_P1;HPM_P2
2023/09/02 00:01:46;;;;;;;1.75;1.75;;;;;;;20.56;82.21;97312.47;5022241;28;20262;-75
2023/09/02 00:04:13;;;;;;;1.75;1.75;;;;;;;20.49;80.61;97315.38;5022300;28;20061;-73
2023/09/02 00:06:40;;;;;;;2.10;2.10;;;;;;;20.60;79.69;97321.63;5023229;28;20486;-74
2023/09/02 00:09:07;;;;;;;1.90;1.90;;;;;;;20.72;78.42;97321.00;5023153;28;20056;-73
2023/09/02 00:11:33;;;;;;;2.13;2.13;;;;;;;20.77;79.41;97315.66;5021544;28;20053;-73
2023/09/02 00:14:00;;;;;;;2.00;2.00;;;;;;;20.77;78.62;97326.16;5023114;28;20052;-74
2023/09/02 00:16:26;;;;;;;2.00;2.00;;;;;;;20.87;76.95;97313.88;5022798;28;20045;-75
2023/09/02 00:18:53;;;;;;;2.17;2.17;;;;;;;20.92;77.01;97327.47;5022716;28;20133;-74
2023/09/02 00:21:20;;;;;;;1.92;1.92;;;;;;;20.72;77.33;97273.16;5022765;28;20132;-74
2023/09/02 00:23:46;;;;;;;1.85;1.85;;;;;;;21.03;77.19;97316.81;5022228;28;20056;-74
2023/09/02 00:26:14;;;;;;;1.90;1.90;;;;;;;21.00;76.81;97312.06;5021571;28;20072;-73
2023/09/02 00:28:41;;;;;;;1.95;1.95;;;;;;;21.11;76.81;97323.91;5022758;28;20538;-73
2023/09/02 00:31:07;;;;;;;2.00;2.00;;;;;;;21.12;76.60;97308.56;5020784;28;20528;-74
2023/09/02 00:33:34;;;;;;;2.05;2.05;;;;;;;21.22;77.39;97316.03;5021069;28;20544;-72
2023/09/02 00:36:01;;;;;;;2.10;2.10;;;;;;;21.03;78.04;97322.47;5022299;28;20128;-74
2023/09/02 00:38:28;;;;;;;1.90;1.90;;;;;;;20.88;79.74;97327.53;5021591;28;20095;-73
2023/09/02 00:41:00;;;;;;;1.98;1.98;;;;;;;21.05;79.30;97325.63;5022014;28;20053;-73
2023/09/02 00:43:29;;;;;;;1.90;1.90;;;;;;;21.11;79.19;97323.91;5020959;28;20050;-75
2023/09/02 00:45:55;;;;;;;2.10;2.10;;;;;;;21.21;79.47;97322.91;5021966;28;20051;-74
2023/09/02 00:48:23;;;;;;;2.10;2.10;;;;;;;21.15;78.83;97324.63;5022280;28;20046;-74
2023/09/02 00:50:49;;;;;;;2.00;2.00;;;;;;;20.84;78.86;97272.50;5022179;28;20406;-73
2023/09/02 00:53:18;;;;;;;1.95;1.95;;;;;;;21.13;78.41;97321.47;5021746;28;20050;-71
2023/09/02 00:55:46;;;;;;;1.75;1.75;;;;;;;20.99;79.53;97321.75;5020097;28;20053;-73
2023/09/02 00:58:13;;;;;;;1.90;1.90;;;;;;;21.03;79.14;97316.81;5021963;28;20049;-74
2023/09/02 01:00:40;;;;;;;2.03;2.03;;;;;;;21.07;79.77;97323.16;5022048;28;20460;-75
2023/09/02 01:03:08;;;;;;;2.30;2.30;;;;;;;21.03;80.10;97311.19;5021917;28;20049;-74
2023/09/02 01:05:35;;;;;;;2.38;2.33;;;;;;;20.79;81.00;97273.00;5021902;28;20057;-73
2023/09/02 01:08:04;;;;;;;1.95;1.95;;;;;;;20.62;78.63;97257.25;5022434;28;20057;-73
2023/09/02 01:10:34;;;;;;;1.88;1.88;;;;;;;20.89;79.52;97305.81;5022446;28;20059;-71
2023/09/02 01:13:02;;;;;;;2.00;2.00;;;;;;;19.33;80.31;97087.56;5022033;28;20049;-71
2023/09/02 01:15:31;;;;;;;1.90;1.90;;;;;;;20.75;80.30;97314.53;5021736;28;20053;-75
2023/09/02 01:17:57;;;;;;;1.90;1.90;;;;;;;20.73;80.14;97320.59;5021896;28;20076;-74
2023/09/02 01:20:33;;;;;;;2.03;2.03;;;;;;;20.68;80.58;97317.44;5022253;28;20153;-71
2023/09/02 01:23:32;;;;;;;2.03;2.03;;;;;;;20.50;83.07;97322.63;5022330;28;20049;-73
2023/09/02 01:26:28;;;;;;;1.83;1.83;;;;;;;20.47;82.43;97324.25;5022217;28;20053;-73
2023/09/02 01:29:00;;;;;;;1.90;1.90;;;;;;;20.44;81.47;97335.56;5021593;28;20060;-74
2023/09/02 01:31:29;;;;;;;1.60;1.60;;;;;;;20.42;80.59;97321.94;5020910;28;20081;-74
2023/09/02 01:33:59;;;;;;;1.95;1.95;;;;;;;20.34;80.93;97325.31;5020547;28;20045;-74
2023/09/02 01:36:28;;;;;;;2.28;2.28;;;;;;;20.43;79.26;97326.34;5021906;28;20176;-73
2023/09/02 01:38:56;;;;;;;1.73;1.73;;;;;;;20.34;81.26;97314.06;5021929;28;20055;-73
2023/09/02 01:41:24;;;;;;;1.80;1.80;;;;;;;20.22;81.98;97315.44;5021425;28;20069;-73
2023/09/02 01:43:54;;;;;;;1.80;1.80;;;;;;;19.87;82.23;97273.00;5020919;28;20058;-73
2023/09/02 01:46:22;;;;;;;1.67;1.67;;;;;;;20.08;83.74;97312.84;5019668;28;20050;-73
2023/09/02 01:48:49;;;;;;;1.90;1.90;;;;;;;19.93;83.60;97299.41;5021024;28;20053;-73
2023/09/02 01:51:17;;;;;;;1.75;1.75;;;;;;;20.07;83.44;97310.44;5018895;28;20057;-74
2023/09/02 01:53:44;;;;;;;1.90;1.90;;;;;;;19.10;84.15;97163.34;5019577;28;20061;-73
2023/09/02 01:56:12;;;;;;;1.92;1.92;;;;;;;19.88;84.71;97280.22;5019294;28;20262;-74
2023/09/02 01:58:38;;;;;;;1.90;1.90;;;;;;;19.81;84.03;97257.81;5021421;28;20056;-73
2023/09/02 02:01:05;;;;;;;2.00;2.00;;;;;;;19.72;84.58;97266.81;5017732;28;20516;-73
2023/09/02 02:03:40;;;;;;;1.85;1.85;;;;;;;19.88;84.85;97292.25;5001052;28;20570;-73
2023/09/02 02:06:09;;;;;;;2.00;2.00;;;;;;;19.89;85.77;97315.53;5001521;28;20050;-73
2023/09/02 02:09:00;;;;;;;2.00;2.00;;;;;;;19.86;85.62;97338.88;5001574;28;20440;-69
2023/09/02 02:11:29;;;;;;;2.05;2.05;;;;;;;19.74;87.06;97325.41;5000878;28;20054;-69
2023/09/02 02:14:02;;;;;;;1.67;1.67;;;;;;;19.71;87.38;97326.25;5000912;28;20140;-70
2023/09/02 02:16:29;;;;;;;;;;;;;;;19.62;87.59;97317.56;5001430;28;20054;-70
2023/09/02 02:19:00;;;;;;;1.70;1.70;;;;;;;19.12;88.10;97267.63;5001046;28;19926;-69
2023/09/02 02:21:28;;;;;;;1.85;1.85;;;;;;;19.16;87.32;97276.78;5000872;28;20373;-68
2023/09/02 02:23:56;;;;;;;1.65;1.65;;;;;;;19.58;87.05;97344.91;5010631;28;20046;-68
2023/09/02 02:26:24;;;;;;;1.85;1.85;;;;;;;19.42;86.73;97309.81;5021482;28;20061;-68
2023/09/02 02:28:50;;;;;;;1.80;1.80;;;;;;;19.38;84.76;97300.59;5026146;28;20068;-67
2023/09/02 02:31:17;;;;;;;1.70;1.70;;;;;;;19.57;83.67;97326.47;5020856;28;20057;-67
2023/09/02 02:33:44;;;;;;;1.70;1.70;;;;;;;19.54;85.18;97328.91;5019232;28;20062;-67
2023/09/02 02:36:10;;;;;;;1.80;1.80;;;;;;;19.40;84.84;97317.03;5018992;28;20136;-68
2023/09/02 02:38:37;;;;;;;1.98;1.98;;;;;;;19.03;85.46;97258.91;5020246;28;20429;-67
2023/09/02 02:41:04;;;;;;;1.70;1.70;;;;;;;19.53;85.48;97332.13;5020510;28;20053;-67
2023/09/02 02:43:30;;;;;;;1.80;1.80;;;;;;;19.50;86.50;97336.59;5020792;28;20053;-67
2023/09/02 02:45:57;;;;;;;1.90;1.90;;;;;;;19.54;85.72;97334.53;5020318;28;20531;-67
2023/09/02 02:48:32;;;;;;;1.90;1.90;;;;;;;19.55;84.86;97335.31;5020235;28;20046;-68
2023/09/02 02:50:59;;;;;;;1.60;1.60;;;;;;;19.57;83.98;97329.28;5023387;28;20057;-67
2023/09/02 02:53:26;;;;;;;1.63;1.63;;;;;;;18.55;84.11;97192.94;5023960;28;20941;-68
2023/09/02 02:55:52;;;;;;;2.05;2.05;;;;;;;19.37;84.28;97332.75;5022642;28;20153;-68
2023/09/02 02:58:19;;;;;;;1.52;1.52;;;;;;;19.35;84.06;97332.34;5023337;28;20253;-67
2023/09/02 03:00:49;;;;;;;1.60;1.60;;;;;;;19.32;84.30;97336.00;5024795;28;20057;-67
2023/09/02 03:03:16;;;;;;;1.70;1.70;;;;;;;18.57;85.00;97193.31;5024291;28;20049;-68
2023/09/02 03:05:44;;;;;;;1.60;1.60;;;;;;;19.45;84.92;97337.06;5024126;28;20048;-68
2023/09/02 03:08:10;;;;;;;1.60;1.60;;;;;;;19.49;84.06;97339.78;5024532;28;20059;-66
2023/09/02 03:10:37;;;;;;;1.70;1.70;;;;;;;19.50;84.67;97339.41;5022153;28;20056;-68
2023/09/02 03:13:05;;;;;;;1.67;1.67;;;;;;;19.30;85.22;97341.25;5024243;28;20789;-68
2023/09/02 03:15:32;;;;;;;1.70;1.70;;;;;;;19.39;85.86;97343.56;5023144;28;20061;-68
2023/09/02 03:17:59;;;;;;;1.90;1.90;;;;;;;19.39;85.58;97349.94;5023258;28;20516;-69
2023/09/02 03:20:25;;;;;;;1.70;1.70;;;;;;;19.40;85.43;97343.13;5023917;28;20072;-68
2023/09/02 03:22:52;;;;;;;1.60;1.60;;;;;;;19.45;85.13;97341.88;5023082;28;20165;-67
2023/09/02 03:25:19;;;;;;;1.83;1.83;;;;;;;19.23;84.01;97313.22;5024726;28;20049;-67
2023/09/02 03:27:45;;;;;;;1.80;1.80;;;;;;;19.26;84.49;97334.84;5025223;28;20053;-67
2023/09/02 03:30:12;;;;;;;1.67;1.67;;;;;;;19.23;85.28;97346.94;5016688;28;20049;-67
2023/09/02 03:32:39;;;;;;;1.65;1.65;;;;;;;19.27;86.49;97358.91;5023952;28;20045;-67
2023/09/02 03:35:07;;;;;;;1.73;1.73;;;;;;;19.35;85.90;97349.22;5023051;28;20060;-67
2023/09/02 03:37:34;;;;;;;1.70;1.70;;;;;;;19.27;86.31;97339.25;5024474;28;20192;-67
2023/09/02 03:40:03;;;;;;;1.88;1.88;;;;;;;19.39;85.96;97352.75;5023575;28;20873;-68
2023/09/02 03:42:30;;;;;;;1.73;1.73;;;;;;;19.18;86.35;97333.34;5024797;28;20060;-68
2023/09/02 03:44:57;;;;;;;1.80;1.80;;;;;;;19.25;85.79;97366.97;5024864;28;20052;-68
2023/09/02 03:47:24;;;;;;;2.00;2.00;;;;;;;19.28;85.40;97371.75;5023062;28;20463;-68
2023/09/02 03:49:51;;;;;;;1.65;1.65;;;;;;;19.31;85.10;97368.13;5025081;28;20128;-67
2023/09/02 03:52:18;;;;;;;1.73;1.73;;;;;;;19.26;85.49;97419.13;5025201;28;21017;-67
2023/09/02 03:54:44;;;;;;;1.80;1.80;;;;;;;18.93;86.08;97318.81;5024828;28;20504;-67
2023/09/02 03:57:11;;;;;;;1.80;1.80;;;;;;;19.20;86.38;97370.25;5025218;28;20063;-69
2023/09/02 03:59:37;;;;;;;1.80;1.80;;;;;;;19.39;87.32;97371.66;5024843;28;20049;-67
2023/09/02 04:02:04;;;;;;;1.73;1.73;;;;;;;19.34;87.61;97367.31;5009555;28;20495;-68
2023/09/02 04:04:31;;;;;;;1.75;1.75;;;;;;;19.38;85.79;97370.84;5023388;28;20049;-67
2023/09/02 04:06:57;;;;;;;1.60;1.60;;;;;;;19.39;86.57;97372.44;5022292;28;20534;-67
2023/09/02 04:09:24;;;;;;;1.75;1.75;;;;;;;19.48;86.79;97375.56;5024021;28;20053;-67
2023/09/02 04:11:51;;;;;;;1.90;1.90;;;;;;;19.21;85.80;97309.22;5024331;28;20053;-68
2023/09/02 04:14:18;;;;;;;2.20;2.20;;;;;;;19.64;86.05;97365.69;5024409;28;20053;-67
2023/09/02 04:16:45;;;;;;;1.90;1.90;;;;;;;19.63;85.17;97344.44;5022275;28;20049;-67
2023/09/02 04:19:12;;;;;;;2.10;2.10;;;;;;;19.30;85.24;97301.91;5022538;28;20507;-67
2023/09/02 04:21:39;;;;;;;2.05;2.05;;;;;;;19.33;85.46;97312.31;5024412;28;20072;-67
2023/09/02 04:24:06;;;;;;;1.90;1.90;;;;;;;19.81;83.92;97359.03;5023689;28;20327;-67
2023/09/02 04:26:33;;;;;;;2.10;2.10;;;;;;;19.73;83.87;97363.19;5023647;28;20498;-67
2023/09/02 04:29:00;;;;;;;1.80;1.80;;;;;;;19.78;83.66;97368.31;5023705;28;20056;-69
2023/09/02 04:31:27;;;;;;;1.90;1.90;;;;;;;19.83;82.57;97367.84;5023388;28;20056;-68
2023/09/02 04:33:53;;;;;;;1.90;1.90;;;;;;;19.77;82.97;97363.94;5023586;28;20057;-69
2023/09/02 04:36:21;;;;;;;2.00;2.00;;;;;;;19.63;84.39;97372.56;5023474;28;20049;-68
2023/09/02 04:38:48;;;;;;;1.80;1.80;;;;;;;19.58;84.24;97352.13;5022128;28;20049;-69
2023/09/02 04:41:16;;;;;;;1.70;1.70;;;;;;;19.76;85.47;97377.19;5024099;28;20060;-68
2023/09/02 04:43:43;;;;;;;1.70;1.70;;;;;;;19.61;85.39;97372.97;5023869;28;20153;-68
2023/09/02 04:46:10;;;;;;;2.10;2.10;;;;;;;19.60;85.62;97387.44;5023290;28;20136;-65
2023/09/02 04:48:36;;;;;;;1.77;1.77;;;;;;;19.63;85.83;97380.97;5023202;28;20045;-68
2023/09/02 04:51:03;;;;;;;2.17;2.17;;;;;;;19.78;84.80;97383.19;5022017;28;20087;-68
2023/09/02 04:53:30;;;;;;;1.90;1.90;;;;;;;19.96;83.98;97385.75;5020542;28;20065;-68
2023/09/02 04:55:59;;;;;;;1.92;1.92;;;;;;;20.03;84.56;97394.09;5021852;28;20073;-68
2023/09/02 04:58:27;;;;;;;2.00;2.00;;;;;;;19.66;83.34;97284.56;5022058;28;20073;-68
2023/09/02 05:00:54;;;;;;;1.63;1.63;;;;;;;20.45;82.36;97387.84;5021523;28;20057;-66
2023/09/02 05:03:21;;;;;;;1.90;1.90;;;;;;;20.72;81.31;97385.78;5021563;28;20045;-66
2023/09/02 05:05:47;;;;;;;2.08;2.08;;;;;;;20.83;79.43;97377.94;5020791;28;20057;-66
2023/09/02 05:08:14;;;;;;;1.95;1.95;;;;;;;21.01;78.50;97378.41;5019657;28;20571;-65
2023/09/02 05:10:41;;;;;;;2.30;2.30;;;;;;;21.02;77.67;97354.69;5021826;28;20045;-67
2023/09/02 05:13:07;;;;;;;2.22;2.22;;;;;;;21.40;76.65;97370.03;5021086;28;20584;-66
2023/09/02 05:15:36;;;;;;;2.10;2.10;;;;;;;21.54;75.72;97375.38;5021950;28;20057;-62
2023/09/02 05:18:03;;;;;;;1.85;1.85;;;;;;;21.41;78.10;97377.25;5021033;28;20053;-66
2023/09/02 05:20:29;;;;;;;2.08;2.08;;;;;;;20.90;81.09;97375.78;5022229;28;20115;-68
2023/09/02 05:22:56;;;;;;;1.98;1.98;;;;;;;20.52;83.04;97371.63;5020189;28;20053;-69
2023/09/02 05:25:27;;;;;;;2.22;2.22;;;;;;;20.74;83.29;97388.94;5021527;28;20519;-70
2023/09/02 05:27:54;;;;;;;1.92;1.92;;;;;;;20.92;82.35;97378.16;5021502;28;20053;-71
2023/09/02 05:30:20;;;;;;;1.92;1.92;;;;;;;20.79;83.74;97380.81;5021387;28;20111;-71
2023/09/02 05:32:47;;;;;;;2.30;2.30;;;;;;;21.17;82.60;97372.88;5021353;28;20057;-70
2023/09/02 05:35:14;;;;;;;1.92;1.92;;;;;;;21.46;81.23;97373.94;5022124;28;20067;-70
2023/09/02 05:37:40;;;;;;;2.58;2.47;;;;;;;21.68;79.60;97368.63;5013463;28;20058;-69
2023/09/02 05:40:08;;;;;;;2.00;2.00;;;;;;;21.61;78.12;97340.59;5002405;28;20082;-69
2023/09/02 05:42:35;;;;;;;2.55;2.45;;;;;;;21.94;76.39;97365.66;5001888;28;20823;-69
2023/09/02 05:45:01;;;;;;;2.55;2.45;;;;;;;22.15;74.84;97370.81;5001665;28;20060;-69
2023/09/02 05:47:28;;;;;;;2.50;2.42;;;;;;;22.30;72.14;97369.22;5001669;28;20068;-68
2023/09/02 05:49:55;;;;;;;2.10;2.10;;;;;;;22.34;72.30;97333.25;5001027;28;20060;-69
2023/09/02 05:52:21;;;;;;;2.67;2.58;;;;;;;22.87;71.81;97370.69;5000689;28;20365;-69
2023/09/02 05:54:49;;;;;;;2.60;2.50;;;;;;;22.50;69.94;97278.81;5001196;28;20056;-69
2023/09/02 05:57:16;;;;;;;3.05;2.95;;;;;;;23.27;67.65;97372.81;5000914;28;20065;-69
2023/09/02 05:59:45;;;;;;;2.58;2.47;;;;;;;23.35;67.19;97388.34;5001201;28;20061;-69
2023/09/02 06:02:12;;;;;;;2.97;2.88;;;;;;;23.52;64.76;97378.56;4999798;28;20513;-69
2023/09/02 06:04:39;;;;;;;3.03;2.92;;;;;;;23.58;65.19;97381.66;5002206;28;20523;-69
2023/09/02 06:07:05;;;;;;;2.83;2.72;;;;;;;23.59;65.45;97332.31;5002430;28;20421;-68
2023/09/02 06:09:32;;;;;;;2.88;2.78;;;;;;;23.58;64.90;97313.78;5010521;28;20420;-67
2023/09/02 06:11:59;;;;;;;3.00;2.90;;;;;;;24.05;64.47;97347.94;5018331;28;20133;-61
2023/09/02 06:14:25;;;;;;;3.20;3.10;;;;;;;22.89;63.38;97116.75;5021523;28;20049;-65
2023/09/02 06:16:52;;;;;;;3.13;3.03;;;;;;;23.97;61.98;97251.13;5019843;28;20045;-66
2023/09/02 06:19:19;;;;;;;3.13;3.03;;;;;;;24.91;60.34;97388.81;5019262;28;20054;-62
2023/09/02 06:21:46;;;;;;;3.15;3.05;;;;;;;25.09;59.23;97391.84;5018907;28;20045;-60
2023/09/02 06:24:12;;;;;;;3.40;3.30;;;;;;;25.49;58.58;97383.56;5000464;28;20054;-65
2023/09/02 06:26:39;;;;;;;3.30;3.20;;;;;;;25.86;57.03;97385.38;5020750;28;20059;-65
2023/09/02 06:29:06;;;;;;;3.80;3.70;;;;;;;25.92;57.29;97388.44;5021974;28;20152;-65
2023/09/02 06:31:32;;;;;;;3.60;3.50;;;;;;;25.99;56.25;97382.47;5020172;28;20516;-65
2023/09/02 06:33:59;;;;;;;3.63;3.53;;;;;;;25.79;53.35;97333.78;5021811;28;20046;-65
2023/09/02 06:36:26;;;;;;;3.55;3.45;;;;;;;26.31;51.53;97393.41;5020504;28;20123;-65
2023/09/02 06:38:53;;;;;;;3.53;3.42;;;;;;;26.41;52.44;97386.53;5020572;28;20050;-64
2023/09/02 06:41:20;;;;;;;3.40;3.30;;;;;;;26.68;51.09;97384.59;5007388;28;20073;-65
2023/09/02 06:43:47;;;;;;;3.92;3.83;;;;;;;26.58;50.39;97362.28;5000265;28;20522;-64
2023/09/02 06:46:16;;;;;;;4.00;3.90;;;;;;;26.55;48.54;97363.22;5002402;28;20054;-66
2023/09/02 06:48:44;;;;;;;4.00;3.90;;;;;;;26.57;48.89;97378.53;5002346;28;20061;-65
2023/09/02 06:51:11;;;;;;;4.00;3.90;;;;;;;26.71;49.32;97377.19;5000383;28;20042;-64
2023/09/02 06:53:42;;;;;;;3.92;3.83;;;;;;;26.95;49.46;97383.91;5000311;28;20061;-64
2023/09/02 06:56:11;;;;;;;3.63;3.53;;;;;;;26.32;48.13;97326.84;5001175;28;20065;-65
2023/09/02 06:58:40;;;;;;;3.97;3.88;;;;;;;26.69;47.72;97376.88;5001275;28;20296;-64
2023/09/02 07:01:15;;;;;;;3.83;3.72;;;;;;;26.89;47.36;97377.22;5001415;28;20136;-64
2023/09/02 07:03:41;;;;;;;3.40;3.30;;;;;;;26.73;46.97;97363.28;5001724;28;20046;-65
2023/09/02 07:06:13;;;;;;;4.20;4.10;;;;;;;27.18;45.96;97377.63;5000227;28;20060;-64
2023/09/02 07:08:40;;;;;;;4.28;4.18;;;;;;;26.91;47.10;97388.94;5001654;28;20046;-64
2023/09/02 07:11:09;;;;;;;3.78;3.67;;;;;;;27.28;46.93;97378.44;5001304;28;20596;-64
2023/09/02 07:13:42;;;;;;;4.00;3.90;;;;;;;27.62;46.08;97381.78;5001942;28;20049;-65
2023/09/02 07:16:09;;;;;;;4.03;3.92;;;;;;;27.64;45.49;97387.78;5001405;28;20054;-64
2023/09/02 07:18:36;;;;;;;4.15;4.05;;;;;;;27.47;45.11;97331.66;5001865;28;20116;-64
2023/09/02 07:21:04;;;;;;;3.88;3.78;;;;;;;27.98;44.53;97373.19;5001364;28;20050;-64
2023/09/02 07:23:32;;;;;;;4.03;3.92;;;;;;;27.82;43.28;97347.88;5003914;28;20537;-64
2023/09/02 07:26:01;;;;;;;3.88;3.78;;;;;;;28.18;43.76;97382.00;5020806;28;20057;-65
2023/09/02 07:28:28;;;;;;;4.18;4.07;;;;;;;28.40;42.38;97381.81;5020564;28;20568;-64
2023/09/02 07:30:58;;;;;;;4.07;3.97;;;;;;;28.23;42.82;97319.97;5019643;28;20088;-64
2023/09/02 07:33:25;;;;;;;4.10;4.00;;;;;;;28.37;41.73;97337.16;5019870;28;20115;-64
2023/09/02 07:35:57;;;;;;;4.50;4.40;;;;;;;28.54;41.71;97334.72;5022574;28;20143;-64
2023/09/02 07:38:24;;;;;;;4.65;4.55;;;;;;;28.88;41.54;97362.75;5024154;28;20571;-66
2023/09/02 07:40:51;;;;;;;4.18;4.07;;;;;;;28.90;40.85;97368.75;5024454;28;20076;-65
2023/09/02 07:43:18;;;;;;;4.43;4.32;;;;;;;29.04;39.79;97362.31;5024867;28;20068;-64
2023/09/02 07:45:45;;;;;;;4.38;4.28;;;;;;;28.88;39.14;97319.97;5024283;28;20112;-65
2023/09/02 07:48:12;;;;;;;4.50;4.40;;;;;;;28.85;39.78;97316.00;5024953;28;20049;-64
2023/09/02 07:50:39;;;;;;;4.60;4.50;;;;;;;29.07;40.71;97367.13;5024325;28;20049;-64
2023/09/02 07:53:06;;;;;;;4.20;4.10;;;;;;;28.75;40.63;97296.59;5024630;28;20140;-64
2023/09/02 07:55:33;;;;;;;4.70;4.60;;;;;;;29.41;39.73;97357.97;5024138;28;20045;-65
2023/09/02 07:58:01;;;;;;;4.50;4.40;;;;;;;29.58;39.19;97361.94;5024710;28;20049;-65
2023/09/02 08:00:28;;;;;;;4.40;4.30;;;;;;;29.67;39.74;97363.97;5023116;28;20128;-65
2023/09/02 08:02:55;;;;;;;4.63;4.53;;;;;;;29.59;38.81;97341.47;5022674;28;20057;-65
2023/09/02 08:05:22;;;;;;;4.00;3.90;;;;;;;29.53;37.77;97332.00;5022527;28;20087;-65
2023/09/02 08:07:49;;;;;;;4.25;4.15;;;;;;;29.22;38.49;97362.25;5023750;28;20053;-65
2023/09/02 08:10:16;;;;;;;4.65;4.55;;;;;;;29.66;38.64;97366.03;5022536;28;20053;-64
2023/09/02 08:12:43;;;;;;;4.80;4.70;;;;;;;29.26;37.97;97368.56;5022289;28;20160;-63
2023/09/02 08:15:10;;;;;;;4.05;3.95;;;;;;;29.35;38.44;97365.63;5024359;28;20053;-64
2023/09/02 08:17:41;;;;;;;4.30;4.20;;;;;;;29.51;38.27;97356.63;5024094;28;20634;-64
2023/09/02 08:20:10;;;;;;;4.43;4.32;;;;;;;29.39;38.04;97360.50;5021252;28;20054;-65
2023/09/02 08:22:39;;;;;;;4.38;4.28;;;;;;;29.29;38.04;97364.75;5023028;28;20051;-64
2023/09/02 08:25:06;;;;;;;4.43;4.32;;;;;;;28.97;37.95;97362.69;5022628;28;20060;-64
2023/09/02 08:27:34;;;;;;;4.38;4.28;;;;;;;29.33;37.95;97368.19;5020906;28;20053;-63
2023/09/02 08:30:02;;;;;;;4.25;4.15;;;;;;;29.44;37.04;97357.78;5022307;28;20429;-64
2023/09/02 08:32:30;;;;;;;4.43;4.32;;;;;;;29.13;37.65;97353.75;5023006;28;20050;-64
2023/09/02 08:34:57;;;;;;;4.53;4.43;;;;;;;29.39;37.41;97351.94;5022983;28;20167;-63
2023/09/02 08:37:23;;;;;;;4.47;4.38;;;;;;;29.69;38.00;97365.06;5022790;28;20053;-64
2023/09/02 08:39:51;;;;;;;4.47;4.38;;;;;;;29.62;38.22;97299.72;5023013;28;20394;-65
2023/09/02 08:42:18;;;;;;;4.32;4.22;;;;;;;30.30;37.86;97349.84;5023145;28;20052;-65
2023/09/02 08:44:48;;;;;;;4.38;4.28;;;;;;;29.97;36.79;97314.94;5021143;28;20053;-64
2023/09/02 08:47:17;;;;;;;4.15;4.05;;;;;;;29.98;37.95;97361.44;5022036;28;20516;-65
2023/09/02 08:49:44;;;;;;;3.92;3.83;;;;;;;29.81;37.40;97358.28;5021370;28;20144;-65
2023/09/02 08:52:13;;;;;;;4.40;4.30;;;;;;;29.67;37.14;97346.84;5015914;28;20054;-64
2023/09/02 08:54:41;;;;;;;4.32;4.22;;;;;;;30.13;37.27;97351.59;5007743;28;20200;-63
2023/09/02 08:57:11;;;;;;;4.30;4.20;;;;;;;30.38;36.77;97351.00;5002467;28;20060;-63
2023/09/02 08:59:39;;;;;;;4.60;4.50;;;;;;;30.50;36.05;97352.78;5002530;28;20089;-63
2023/09/02 09:02:10;;;;;;;4.07;3.97;;;;;;;30.36;35.79;97284.97;5002106;28;20061;-63
2023/09/02 09:04:38;;;;;;;4.40;4.30;;;;;;;30.91;35.46;97342.25;5001221;28;20053;-63
2023/09/02 09:07:05;;;;;;;4.30;4.20;;;;;;;31.01;35.59;97352.28;5001070;28;20057;-64
2023/09/02 09:09:35;;;;;;;4.50;4.40;;;;;;;30.94;35.22;97342.03;5000955;28;20068;-64
2023/09/02 09:12:07;;;;;;;4.93;4.83;;;;;;;30.72;34.77;97324.50;5001501;28;20088;-63
2023/09/02 09:14:36;;;;;;;4.13;4.03;;;;;;;31.02;35.11;97345.25;5003045;28;20297;-64
2023/09/02 09:17:04;;;;;;;4.90;4.80;;;;;;;31.13;34.52;97341.75;5003408;28;20052;-63
2023/09/02 09:19:32;;;;;;;4.32;4.22;;;;;;;31.31;34.07;97335.78;5003472;28;20620;-65
2023/09/02 09:22:02;;;;;;;4.97;4.88;;;;;;;31.25;34.93;97323.44;5003084;28;20445;-64
2023/09/02 09:24:29;;;;;;;4.40;4.30;;;;;;;31.26;34.97;97330.72;5011454;28;20083;-64
2023/09/02 09:26:58;;;;;;;4.80;4.70;;;;;;;30.58;34.77;97336.78;5022709;28;20592;-64
2023/09/02 09:29:25;;;;;;;5.03;4.93;;;;;;;30.16;35.17;97299.16;5021468;28;20057;-64
2023/09/02 09:32:10;;;;;;;4.30;4.20;;;;;;;29.85;37.44;97307.44;5019391;28;20139;-64
2023/09/02 09:34:42;;;;;;;4.38;4.28;;;;;;;30.63;36.17;97327.50;5021360;28;20139;-63
2023/09/02 09:37:09;;;;;;;4.07;3.97;;;;;;;30.81;35.69;97343.63;5021201;28;20130;-63
2023/09/02 09:39:45;;;;;;;4.32;4.22;;;;;;;31.08;34.99;97328.94;5021665;28;20371;-64
2023/09/02 09:42:14;;;;;;;4.47;4.38;;;;;;;31.38;34.43;97312.44;5020368;28;20638;-69
2023/09/02 09:44:57;;;;;;;4.78;4.68;;;;;;;31.65;34.47;97320.56;5021382;28;20140;-70
2023/09/02 09:47:26;;;;;;;4.88;4.78;;;;;;;30.71;34.80;97320.06;5018197;28;20050;-69
2023/09/02 09:49:53;;;;;;;4.82;4.72;;;;;;;30.12;36.21;97303.50;5001180;28;20061;-69
2023/09/02 09:52:21;;;;;;;4.28;4.18;;;;;;;30.71;35.97;97322.91;4998951;28;20614;-69
2023/09/02 09:54:51;;;;;;;4.85;4.75;;;;;;;31.36;34.36;97309.28;5001268;28;20068;-69
2023/09/02 09:57:29;;;;;;;4.35;4.25;;;;;;;31.77;34.76;97310.81;5001436;28;20475;-70
2023/09/02 09:59:57;;;;;;;4.60;4.50;;;;;;;31.85;35.49;97314.81;5003502;28;20053;-70
2023/09/02 10:02:24;;;;;;;5.00;4.90;;;;;;;31.80;35.21;97310.59;5003065;28;20118;-70
2023/09/02 10:04:56;;;;;;;4.60;4.50;;;;;;;32.05;34.22;97314.75;5002185;28;20062;-69
2023/09/02 10:07:25;;;;;;;4.38;4.28;;;;;;;32.22;33.65;97312.81;5001571;28;20514;-70
2023/09/02 10:09:54;;;;;;;4.72;4.63;;;;;;;31.71;35.00;97315.69;5001966;28;20532;-69
2023/09/02 10:12:22;;;;;;;4.55;4.45;;;;;;;31.98;34.93;97316.00;5002966;28;20067;-69
2023/09/02 10:14:50;;;;;;;5.07;4.97;;;;;;;32.15;33.86;97324.75;5002786;28;20049;-69
2023/09/02 10:17:18;;;;;;;4.85;4.75;;;;;;;31.79;33.53;97296.75;4840595;28;5001568;-69
2023/09/02 10:19:46;;;;;;;4.47;4.38;;;;;;;31.52;34.02;97320.16;5013692;28;20053;-70
2023/09/02 10:22:18;;;;;;;4.78;4.68;;;;;;;31.53;33.79;97318.88;5001157;28;20046;-69
2023/09/02 10:25:19;;;;;;;4.68;4.57;;;;;;;32.32;33.73;97322.81;5010540;28;20049;-69
2023/09/02 10:28:04;;;;;;;4.60;4.50;;;;;;;32.47;33.15;97309.13;5021969;28;20052;-70
2023/09/02 10:30:36;;;;;;;4.85;4.75;;;;;;;32.80;33.01;97317.97;5020809;28;20427;-69
2023/09/02 10:33:21;;;;;;;5.20;5.10;;;;;;;32.70;31.87;97318.69;5022381;28;20136;-70
2023/09/02 10:35:57;;;;;;;5.00;4.90;;;;;;;32.63;32.93;97319.19;5022093;28;20057;-69
2023/09/02 10:38:26;;;;;;;4.78;4.68;;;;;;;32.79;32.05;97315.59;5020449;28;20077;-70
2023/09/02 10:41:03;;;;;;;4.85;4.75;;;;;;;32.17;32.97;97316.41;5019481;28;20049;-70
2023/09/02 10:43:31;;;;;;;4.85;4.75;;;;;;;32.00;32.88;97318.34;5021092;28;20091;-70
2023/09/02 10:45:59;;;;;;;4.97;4.88;;;;;;;32.07;33.10;97306.44;5021609;28;20087;-70
2023/09/02 10:48:26;;;;;;;4.28;4.18;;;;;;;32.59;33.20;97307.94;5021471;28;20081;-69
2023/09/02 10:50:54;;;;;;;4.80;4.70;;;;;;;32.85;32.22;97308.59;5019831;28;20528;-70
2023/09/02 10:53:50;;;;;;;4.97;4.88;;;;;;;31.84;32.44;97314.03;5020007;28;20505;-70
2023/09/02 10:56:30;;;;;;;5.03;4.93;;;;;;;31.89;33.05;97309.63;5021518;28;20119;-70
2023/09/02 10:59:05;;;;;;;4.63;4.53;;;;;;;31.58;33.18;97303.81;5021186;28;20540;-70
2023/09/02 11:01:48;;;;;;;4.88;4.78;;;;;;;31.92;34.10;97311.50;5020166;28;20137;-70
2023/09/02 11:04:40;;;;;;;4.72;4.63;;;;;;;30.62;35.18;97313.72;5021480;28;20050;-70
2023/09/02 11:07:24;;;;;;;4.65;4.55;;;;;;;30.38;35.68;97328.13;5021212;28;20073;-69
2023/09/02 11:09:53;;;;;;;4.63;4.53;;;;;;;30.53;34.70;97328.91;5019664;28;20062;-69
2023/09/02 11:12:21;;;;;;;5.03;4.93;;;;;;;30.68;34.93;97323.91;5024365;28;20080;-70
2023/09/02 11:15:11;;;;;;;4.80;4.70;;;;;;;30.70;34.95;97309.91;5024122;28;20064;-68
2023/09/02 11:17:40;;;;;;;4.90;4.80;;;;;;;30.92;34.52;97310.25;5023939;28;20080;-67
2023/09/02 11:20:23;;;;;;;4.63;4.53;;;;;;;30.69;34.74;97267.50;5023946;28;20057;-67
2023/09/02 11:22:56;;;;;;;;;;;;;;;31.07;34.39;97309.41;5024524;28;20046;-68
2023/09/02 11:25:43;;;;;;;4.82;4.72;;;;;;;31.17;34.00;97299.41;5023189;28;19925;-68
2023/09/02 11:28:18;;;;;;;4.57;4.47;;;;;;;31.05;34.66;97300.56;5024656;28;20580;-67
2023/09/02 11:31:04;;;;;;;4.97;4.88;;;;;;;31.09;34.91;97301.91;5025341;28;20111;-68
2023/09/02 11:33:33;;;;;;;4.75;4.65;;;;;;;31.05;35.33;97266.19;5023339;28;20049;-68
2023/09/02 11:36:05;;;;;;;4.72;4.63;;;;;;;31.03;34.81;97252.38;5023335;28;20053;-63
2023/09/02 11:38:36;;;;;;;4.72;4.63;;;;;;;31.14;34.51;97257.47;5024411;28;20081;-68
2023/09/02 11:41:03;;;;;;;4.60;4.50;;;;;;;31.29;33.72;97281.84;5023109;28;20072;-68
2023/09/02 11:43:32;;;;;;;4.40;4.30;;;;;;;30.27;35.12;97258.56;5023159;28;20186;-63